Daytona Beach International Airport (DAB/KDAB)




Flight Aircraft Arriving
CPX3267 SF34
KMIA - Miami International Airport
United StatesFlorida Miami, Florida
Flight Aircraft Departing
CPX3268 SF34
KMIA - Miami International Airport
United StatesFlorida Miami, Florida
Airport Information
Location: Daytona Beach, US
Coordinates: 29.1799 / -81.0581
Elevation:
Time Offset:
Local Time:
UTC Time:
Jet A Price: $0.87/lbs

Current Weather
METAR: KDAB 052153Z 00000KT 10SM -RA SCT075 BKN110 OVC120 23/23 A2998 RMK AO2 LTG DSNT N TSE20 SLP152 TS MOVD E P0004 T02280228 $
TAF: KDAB 051741Z 0518/0618 11007KT P6SM VCTS SCT035CB SCT060 TEMPO 0518/0521 VRB18G25KT 3SM TSRA BKN035CB BKN050 OVC080 FM052300 VRB04KT P6SM VCSH SCT035 BKN100 FM060300 VRB04KT P6SM SCT120 BKN250 FM061400 21005KT P6SM SCT035 BKN250 FM061700 16006KT P6SM SCT035 BKN250

Recent Arrivals
Date Flight Type Depart
01/03/2020 CPX3268 SF34 Miami International Airport (KMIA)
11/04/2019 CPX668 SF34 Miami International Airport (KMIA)
Recent Departures
Date Flight Type Arrive
01/04/2020 CPX3267 SF34 Miami International Airport (KMIA)
11/05/2019 CPX667 SF34 Miami International Airport (KMIA)